createdAt,value
2022-12-22T00:02:31.723Z,12.40
2022-12-22T00:05:17.368Z,12.40
2022-12-22T00:08:02.901Z,12.50
2022-12-22T00:10:48.626Z,12.30
2022-12-22T00:13:35.962Z,12.30
2022-12-22T00:16:21.656Z,12.30
2022-12-22T00:19:09.292Z,12.30
2022-12-22T00:22:03.309Z,12.10
2022-12-22T00:24:49.017Z,12.20
2022-12-22T00:27:41.184Z,12.20
2022-12-22T00:30:33.288Z,12.30
2022-12-22T00:33:21.878Z,12.30
2022-12-22T00:36:08.623Z,12.20
2022-12-22T00:38:58.319Z,12.20
2022-12-22T00:41:43.998Z,12.10
2022-12-22T00:44:29.981Z,12.00
2022-12-22T00:47:16.020Z,12.00
2022-12-22T00:50:06.008Z,12.00
2022-12-22T00:52:52.566Z,12.00
2022-12-22T00:55:44.397Z,12.00
2022-12-22T00:58:36.262Z,12.00
2022-12-22T01:01:22.056Z,12.10
2022-12-22T01:04:08.019Z,12.30
2022-12-22T01:06:55.454Z,12.30
2022-12-22T01:09:41.980Z,12.30
2022-12-22T01:12:47.170Z,12.50
2022-12-22T01:15:38.583Z,12.40
2022-12-22T01:18:26.513Z,12.40
2022-12-22T01:21:12.902Z,12.30
2022-12-22T01:24:00.210Z,12.20
2022-12-22T01:26:46.866Z,12.20
2022-12-22T01:29:32.230Z,12.30
2022-12-22T01:32:18.290Z,12.20
2022-12-22T01:35:03.664Z,12.20
2022-12-22T01:37:49.107Z,12.20
2022-12-22T01:40:39.109Z,12.10
2022-12-22T01:43:52.116Z,12.20
2022-12-22T01:46:40.970Z,12.10
2022-12-22T01:49:29.030Z,12.00
2022-12-22T01:52:16.675Z,12.00
2022-12-22T01:55:02.790Z,12.00
2022-12-22T01:57:49.765Z,11.90
2022-12-22T02:00:35.409Z,12.00
2022-12-22T02:03:23.589Z,12.10
2022-12-22T02:06:40.443Z,12.10
2022-12-22T02:09:57.836Z,12.00
2022-12-22T02:13:22.863Z,12.10
2022-12-22T02:16:19.796Z,12.00
2022-12-22T02:19:19.190Z,12.00
2022-12-22T02:22:35.363Z,12.00
2022-12-22T02:25:30.705Z,11.90
2022-12-22T02:28:18.367Z,11.90
2022-12-22T02:31:05.838Z,11.80
2022-12-22T02:33:51.612Z,12.00
2022-12-22T02:36:50.869Z,12.20
2022-12-22T02:39:49.385Z,12.40
2022-12-22T02:42:55.687Z,12.50
2022-12-22T02:45:47.974Z,12.60
2022-12-22T02:48:46.225Z,12.30
2022-12-22T02:51:44.025Z,12.20
2022-12-22T02:54:31.869Z,12.00
2022-12-22T02:57:17.821Z,12.00
2022-12-22T03:00:04.666Z,11.90
2022-12-22T03:02:50.637Z,11.80
2022-12-22T03:05:36.404Z,11.80
2022-12-22T03:08:22.347Z,11.80
2022-12-22T03:11:08.509Z,12.00
2022-12-22T03:13:55.116Z,12.00
2022-12-22T03:16:42.659Z,12.00
2022-12-22T03:19:30.275Z,11.90
2022-12-22T03:22:15.954Z,11.90
2022-12-22T03:25:01.762Z,11.90
2022-12-22T03:27:29.522Z,11.90
2022-12-22T03:29:56.781Z,11.90
2022-12-22T03:32:23.956Z,11.80
2022-12-22T03:34:51.167Z,11.80
2022-12-22T03:37:19.945Z,11.80
2022-12-22T03:39:47.042Z,11.80
2022-12-22T03:42:32.521Z,11.90
2022-12-22T03:45:22.236Z,11.90
2022-12-22T03:50:30.287Z,12.30
2022-12-22T03:52:59.152Z,12.40
2022-12-22T03:55:26.698Z,12.40
2022-12-22T03:57:53.973Z,12.30
2022-12-22T04:00:22.235Z,12.10
2022-12-22T04:02:50.186Z,12.20
2022-12-22T04:05:17.625Z,12.30
2022-12-22T04:07:45.047Z,12.30
2022-12-22T04:13:10.051Z,12.10
2022-12-22T04:15:37.163Z,12.20
2022-12-22T04:18:04.262Z,12.20
2022-12-22T04:20:31.447Z,12.20
2022-12-22T04:23:00.145Z,12.20
2022-12-22T04:25:28.739Z,12.00
2022-12-22T04:27:56.175Z,12.00
2022-12-22T04:30:23.349Z,11.90
2022-12-22T04:32:50.369Z,12.10
2022-12-22T04:35:17.497Z,12.20
2022-12-22T04:37:44.612Z,12.20
2022-12-22T04:40:11.774Z,12.10
2022-12-22T04:42:38.731Z,12.10
2022-12-22T04:45:06.409Z,12.10
2022-12-22T04:47:48.474Z,12.00
2022-12-22T04:50:15.521Z,12.00
2022-12-22T04:52:42.517Z,12.10
2022-12-22T04:55:09.800Z,12.00
2022-12-22T04:57:40.480Z,12.00
2022-12-22T05:00:09.899Z,12.10
2022-12-22T05:02:37.113Z,12.20
2022-12-22T05:05:04.390Z,12.20
2022-12-22T05:07:31.254Z,12.20
2022-12-22T05:09:58.204Z,12.30
2022-12-22T05:12:43.358Z,12.30
2022-12-22T05:15:11.201Z,12.30
2022-12-22T05:17:38.228Z,12.20
2022-12-22T05:20:05.645Z,12.20
2022-12-22T05:22:32.594Z,12.20
2022-12-22T05:24:59.725Z,12.30
2022-12-22T05:27:26.837Z,12.30
2022-12-22T05:29:53.803Z,12.20
2022-12-22T05:32:20.780Z,12.30
2022-12-22T05:34:47.967Z,12.30
2022-12-22T05:37:15.042Z,12.30
2022-12-22T05:39:42.059Z,12.20
2022-12-22T05:42:09.112Z,12.20
2022-12-22T05:44:36.479Z,12.20
2022-12-22T05:47:03.550Z,12.30
2022-12-22T05:49:30.593Z,12.30
2022-12-22T05:51:57.795Z,12.30
2022-12-22T05:54:24.762Z,12.20
2022-12-22T05:56:51.923Z,12.20
2022-12-22T05:59:18.935Z,12.30
2022-12-22T06:01:46.195Z,12.20
2022-12-22T06:04:13.521Z,12.10
2022-12-22T06:06:45.207Z,12.10
2022-12-22T06:09:13.368Z,12.20
2022-12-22T06:11:40.438Z,12.10
2022-12-22T06:14:10.570Z,12.10
2022-12-22T06:16:37.564Z,11.90
2022-12-22T06:19:04.578Z,12.00
2022-12-22T06:21:31.492Z,12.00
2022-12-22T06:23:58.476Z,12.00
2022-12-22T06:26:25.489Z,11.90
2022-12-22T06:28:52.629Z,12.00
2022-12-22T06:31:19.702Z,12.00
2022-12-22T06:33:46.724Z,11.90
2022-12-22T06:36:13.638Z,11.80
2022-12-22T06:38:40.922Z,11.70
2022-12-22T06:41:08.019Z,11.70
2022-12-22T06:43:34.953Z,11.70
2022-12-22T06:46:01.941Z,11.70
2022-12-22T06:48:29.116Z,11.80
2022-12-22T06:51:00.400Z,11.80
2022-12-22T06:53:27.851Z,11.70
2022-12-22T06:55:54.806Z,11.70
2022-12-22T06:58:21.890Z,11.70
2022-12-22T07:00:51.328Z,11.80
2022-12-22T07:03:18.684Z,11.70
2022-12-22T07:05:46.141Z,11.60
2022-12-22T07:08:13.013Z,11.50
2022-12-22T07:10:57.951Z,11.40
2022-12-22T07:13:35.639Z,11.50
2022-12-22T07:16:03.983Z,11.50
2022-12-22T07:18:33.278Z,11.40
2022-12-22T07:21:02.459Z,11.40
2022-12-22T07:23:30.311Z,11.40
2022-12-22T07:25:57.417Z,11.40
2022-12-22T07:28:25.269Z,11.30
2022-12-22T07:30:53.294Z,11.00
2022-12-22T07:33:20.516Z,11.00
2022-12-22T07:35:47.630Z,10.90
2022-12-22T07:38:14.535Z,10.90
2022-12-22T07:40:42.780Z,10.90
2022-12-22T07:43:10.684Z,10.90
2022-12-22T07:45:38.730Z,10.60
2022-12-22T07:48:26.088Z,10.70
2022-12-22T07:51:05.177Z,10.60
2022-12-22T07:53:34.010Z,10.50
2022-12-22T07:56:05.646Z,10.40
2022-12-22T07:58:32.696Z,10.40
2022-12-22T08:01:01.225Z,10.30
2022-12-22T08:03:28.853Z,10.50
2022-12-22T08:05:55.762Z,10.30
2022-12-22T08:08:22.948Z,10.40
2022-12-22T08:10:49.996Z,10.20
2022-12-22T08:13:17.788Z,10.20
2022-12-22T08:15:44.693Z,10.10
2022-12-22T08:18:12.361Z,10.30
2022-12-22T08:20:39.296Z,10.30
2022-12-22T08:23:06.825Z,10.30
2022-12-22T08:25:35.120Z,10.40
2022-12-22T08:28:03.139Z,10.40
2022-12-22T08:30:30.390Z,10.30
2022-12-22T08:32:57.445Z,10.10
2022-12-22T08:35:24.453Z,10.20
2022-12-22T08:37:52.552Z,10.30
2022-12-22T08:40:27.355Z,10.40
2022-12-22T08:42:59.317Z,10.40
2022-12-22T08:45:26.388Z,10.50
2022-12-22T08:47:53.299Z,10.60
2022-12-22T08:50:20.394Z,10.70
2022-12-22T08:52:47.484Z,10.80
2022-12-22T08:55:14.643Z,10.80
2022-12-22T08:57:41.976Z,10.80
2022-12-22T09:00:13.121Z,10.70
2022-12-22T09:02:40.284Z,10.60
2022-12-22T09:05:07.752Z,10.50
2022-12-22T09:07:34.573Z,10.60
2022-12-22T09:10:01.425Z,10.50
2022-12-22T09:12:28.245Z,10.40
2022-12-22T09:14:55.103Z,10.60
2022-12-22T09:17:21.998Z,10.60
2022-12-22T09:19:48.959Z,10.70
2022-12-22T09:22:18.278Z,10.80
2022-12-22T09:24:47.493Z,10.90
2022-12-22T09:27:14.486Z,11.00
2022-12-22T09:29:41.826Z,11.00
2022-12-22T09:32:08.845Z,11.00
2022-12-22T09:34:35.755Z,10.90
2022-12-22T09:37:02.753Z,11.10
2022-12-22T09:39:29.961Z,11.40
2022-12-22T09:41:58.103Z,11.70
2022-12-22T09:44:29.934Z,11.90
2022-12-22T09:47:00.227Z,11.80
2022-12-22T09:49:27.417Z,11.90
2022-12-22T09:52:01.349Z,11.80
2022-12-22T09:54:29.453Z,12.00
2022-12-22T09:56:57.324Z,12.10
2022-12-22T09:59:27.688Z,12.10
2022-12-22T10:02:18.753Z,12.20
2022-12-22T10:04:57.934Z,12.30
2022-12-22T10:07:38.485Z,12.20
2022-12-22T10:10:19.633Z,12.40
2022-12-22T10:12:49.949Z,12.40
2022-12-22T10:15:21.775Z,12.30
2022-12-22T10:18:09.235Z,12.30
2022-12-22T10:20:38.497Z,12.20
2022-12-22T10:23:16.470Z,12.00
2022-12-22T10:26:27.460Z,12.10
2022-12-22T10:28:55.838Z,12.30
2022-12-22T10:31:29.323Z,12.10
2022-12-22T10:34:10.311Z,12.30
2022-12-22T10:36:38.599Z,12.60
2022-12-22T10:39:11.159Z,12.60
2022-12-22T10:41:42.174Z,12.40
2022-12-22T10:44:19.283Z,12.40
2022-12-22T10:46:49.408Z,12.50
2022-12-22T10:49:25.392Z,12.70
2022-12-22T10:52:08.899Z,12.90
2022-12-22T10:54:36.334Z,13.20
2022-12-22T10:57:27.866Z,13.30
2022-12-22T10:59:59.096Z,13.10
2022-12-22T11:02:29.291Z,13.10
2022-12-22T11:05:08.421Z,13.10
2022-12-22T11:07:43.613Z,12.70
2022-12-22T11:10:28.585Z,12.80
2022-12-22T11:13:10.465Z,12.80
2022-12-22T11:15:54.659Z,12.60
2022-12-22T11:18:37.778Z,12.50
2022-12-22T11:21:22.032Z,12.20
2022-12-22T11:24:35.515Z,12.20
2022-12-22T11:27:27.889Z,12.00
2022-12-22T11:30:03.723Z,12.10
2022-12-22T11:32:45.676Z,12.00
2022-12-22T11:35:34.609Z,11.90
2022-12-22T11:38:22.825Z,11.90
2022-12-22T11:41:00.959Z,11.80
2022-12-22T11:43:54.370Z,11.80
2022-12-22T11:46:36.418Z,11.70
2022-12-22T11:49:12.968Z,11.70
2022-12-22T11:51:51.856Z,11.60
2022-12-22T11:54:36.576Z,11.60
2022-12-22T11:57:11.319Z,11.60
2022-12-22T11:59:45.879Z,11.50
2022-12-22T12:02:24.845Z,11.20
2022-12-22T12:05:04.036Z,11.30
2022-12-22T12:07:51.997Z,11.30
2022-12-22T12:10:42.583Z,11.50
2022-12-22T12:13:27.427Z,11.50
2022-12-22T12:16:00.402Z,11.50
2022-12-22T12:18:42.805Z,11.60
2022-12-22T12:21:24.195Z,11.50
2022-12-22T12:24:16.164Z,11.40
2022-12-22T12:27:01.977Z,11.60
2022-12-22T12:29:38.531Z,11.60
2022-12-22T12:32:11.656Z,11.50
2022-12-22T12:34:44.645Z,11.50
2022-12-22T12:37:24.245Z,11.30
2022-12-22T12:40:18.849Z,11.60
2022-12-22T12:42:48.073Z,11.70
2022-12-22T12:45:42.367Z,11.70
2022-12-22T12:48:21.998Z,11.70
2022-12-22T12:50:50.551Z,11.60
2022-12-22T12:53:19.777Z,11.70
2022-12-22T12:55:54.797Z,11.80
2022-12-22T12:58:39.713Z,12.00
2022-12-22T13:01:12.339Z,12.00
2022-12-22T13:06:51.088Z,11.70
2022-12-22T13:09:49.801Z,11.70
2022-12-22T13:12:40.437Z,11.80
2022-12-22T13:15:34.823Z,11.80
2022-12-22T13:18:04.054Z,12.10
2022-12-22T13:20:33.818Z,12.00
2022-12-22T13:23:04.314Z,12.10
2022-12-22T13:25:47.998Z,12.20
2022-12-22T13:28:17.340Z,12.20
2022-12-22T13:31:24.811Z,12.10
2022-12-22T13:34:23.801Z,12.20
2022-12-22T13:36:51.431Z,12.20
2022-12-22T13:39:18.551Z,12.40
2022-12-22T13:41:48.518Z,12.30
2022-12-22T13:44:35.461Z,12.30
2022-12-22T13:47:13.155Z,12.30
2022-12-22T13:50:07.972Z,12.40
2022-12-22T13:52:29.024Z,12.40
2022-12-22T13:54:55.984Z,12.50
2022-12-22T13:57:23.549Z,12.40
2022-12-22T13:59:52.379Z,12.40
2022-12-22T14:02:21.250Z,12.50
2022-12-22T14:05:09.321Z,12.60
2022-12-22T14:07:36.554Z,12.50
2022-12-22T14:10:04.456Z,12.50
2022-12-22T14:12:40.979Z,12.50
2022-12-22T14:15:17.128Z,12.50
2022-12-22T14:17:52.262Z,12.60
2022-12-22T14:20:20.931Z,12.50
2022-12-22T14:23:11.768Z,12.50
2022-12-22T14:25:41.864Z,12.50
2022-12-22T14:28:33.784Z,12.60
2022-12-22T14:31:02.715Z,12.50
2022-12-22T14:33:34.483Z,12.40
2022-12-22T14:36:25.433Z,12.50
2022-12-22T14:38:55.050Z,12.60
2022-12-22T14:41:51.160Z,12.50
2022-12-22T14:44:32.387Z,12.60
2022-12-22T14:47:05.430Z,12.60
2022-12-22T14:49:33.505Z,12.60
2022-12-22T14:52:08.542Z,12.60
2022-12-22T14:54:35.642Z,12.50
2022-12-22T14:57:16.224Z,12.40
2022-12-22T14:59:59.253Z,12.40
2022-12-22T15:02:39.236Z,12.20
2022-12-22T15:05:25.274Z,12.30
2022-12-22T15:08:05.597Z,12.50
2022-12-22T15:10:41.364Z,12.50
2022-12-22T15:13:24.278Z,12.40
2022-12-22T15:15:52.446Z,12.40
2022-12-22T15:18:25.093Z,12.40
2022-12-22T15:20:52.155Z,12.40
2022-12-22T15:23:19.451Z,12.40
2022-12-22T15:25:46.752Z,12.50
2022-12-22T15:28:13.890Z,12.50
2022-12-22T15:30:41.586Z,12.50
2022-12-22T15:33:17.114Z,12.50
2022-12-22T15:35:45.535Z,12.50
2022-12-22T15:38:18.598Z,12.40
2022-12-22T15:40:46.098Z,12.60
2022-12-22T15:43:44.748Z,12.60
2022-12-22T15:46:04.190Z,12.50
2022-12-22T15:48:39.554Z,12.50
2022-12-22T15:51:12.589Z,12.60
2022-12-22T15:53:39.804Z,12.50
2022-12-22T15:56:17.351Z,12.50
2022-12-22T15:58:44.806Z,12.60
2022-12-22T16:01:12.889Z,12.50
2022-12-22T16:03:40.091Z,12.50
2022-12-22T16:06:13.859Z,12.50
2022-12-22T16:08:43.242Z,12.40
2022-12-22T16:11:10.554Z,12.60
2022-12-22T16:13:38.024Z,12.70
2022-12-22T16:16:05.467Z,12.50
2022-12-22T16:18:33.205Z,12.50
2022-12-22T16:21:07.960Z,12.40
2022-12-22T16:23:36.776Z,12.60
2022-12-22T16:26:05.285Z,12.50
2022-12-22T16:28:33.439Z,12.60
2022-12-22T16:31:01.283Z,12.50
2022-12-22T16:33:29.066Z,12.40
2022-12-22T16:35:56.705Z,12.50
2022-12-22T16:38:23.809Z,12.40
2022-12-22T16:40:53.211Z,12.50
2022-12-22T16:46:13.847Z,12.40
2022-12-22T16:48:44.944Z,12.40
2022-12-22T16:51:18.346Z,12.40
2022-12-22T16:53:46.042Z,12.40
2022-12-22T16:56:22.076Z,12.40
2022-12-22T16:58:49.530Z,12.50
2022-12-22T17:01:21.903Z,12.30
2022-12-22T17:03:49.491Z,12.30
2022-12-22T17:06:17.476Z,12.30
2022-12-22T17:08:46.442Z,12.30
2022-12-22T17:11:22.900Z,12.20
2022-12-22T17:13:52.495Z,12.30
2022-12-22T17:16:22.300Z,12.10
2022-12-22T17:18:49.826Z,12.20
2022-12-22T17:21:18.583Z,12.30
2022-12-22T17:23:49.733Z,12.30
2022-12-22T17:26:21.496Z,12.10
2022-12-22T17:28:49.870Z,12.10
2022-12-22T17:31:19.627Z,12.10
2022-12-22T17:33:46.815Z,12.10
2022-12-22T17:36:24.173Z,12.10
2022-12-22T17:38:51.274Z,12.20
2022-12-22T17:41:18.310Z,12.30
2022-12-22T17:43:46.670Z,12.30
2022-12-22T17:46:18.485Z,12.30
2022-12-22T17:48:46.683Z,12.20
2022-12-22T17:51:22.977Z,12.10
2022-12-22T17:53:50.061Z,12.10
2022-12-22T17:56:22.090Z,12.20
2022-12-22T17:58:49.549Z,12.20
2022-12-22T18:01:20.981Z,12.20
2022-12-22T18:03:48.152Z,12.30
2022-12-22T18:06:18.323Z,12.40
2022-12-22T18:08:46.227Z,12.30
2022-12-22T18:11:14.027Z,12.10
2022-12-22T18:13:41.449Z,12.20
2022-12-22T18:16:16.034Z,12.20
2022-12-22T18:18:43.873Z,12.30
2022-12-22T18:21:20.625Z,12.20
2022-12-22T18:23:50.598Z,12.20
2022-12-22T18:26:29.550Z,12.40
2022-12-22T18:28:56.712Z,12.30
2022-12-22T18:31:24.332Z,12.50
2022-12-22T18:33:51.995Z,12.20
2022-12-22T18:36:31.231Z,12.20
2022-12-22T18:39:00.257Z,12.20
2022-12-22T18:41:29.924Z,12.20
2022-12-22T18:43:56.922Z,12.10
2022-12-22T18:46:24.908Z,12.10
2022-12-22T18:48:51.897Z,12.20
2022-12-22T18:51:24.478Z,12.30
2022-12-22T18:53:54.061Z,12.30
2022-12-22T18:56:21.075Z,12.30
2022-12-22T18:58:48.210Z,12.40
2022-12-22T19:01:24.926Z,12.30
2022-12-22T19:03:55.320Z,12.40
2022-12-22T19:06:23.060Z,12.60
2022-12-22T19:08:50.914Z,12.50
2022-12-22T19:11:21.576Z,12.50
2022-12-22T19:13:51.493Z,12.20
2022-12-22T19:16:22.236Z,12.20
2022-12-22T19:18:49.145Z,12.10
2022-12-22T19:21:17.911Z,12.10
2022-12-22T19:23:45.927Z,12.00
2022-12-22T19:26:27.009Z,12.10
2022-12-22T19:28:57.418Z,12.10
2022-12-22T19:31:27.195Z,12.20
2022-12-22T19:33:56.081Z,12.30
2022-12-22T19:36:28.192Z,12.20
2022-12-22T19:39:03.379Z,12.30
2022-12-22T19:41:46.948Z,12.20
2022-12-22T19:44:29.184Z,12.10
2022-12-22T19:46:59.355Z,12.40
2022-12-22T19:49:27.918Z,12.60
2022-12-22T19:51:58.361Z,12.60
2022-12-22T19:54:25.574Z,12.60
2022-12-22T19:56:55.339Z,12.50
2022-12-22T19:59:35.591Z,12.60
2022-12-22T20:02:20.034Z,12.70
2022-12-22T20:04:47.744Z,12.60
2022-12-22T20:07:19.570Z,12.50
2022-12-22T20:09:46.580Z,12.60
2022-12-22T20:12:25.201Z,12.70
2022-12-22T20:15:20.649Z,12.80
2022-12-22T20:17:49.672Z,12.60
2022-12-22T20:20:37.543Z,12.50
2022-12-22T20:23:16.020Z,12.50
2022-12-22T20:25:48.520Z,12.70
2022-12-22T20:28:22.372Z,12.60
2022-12-22T20:30:50.046Z,12.60
2022-12-22T20:33:19.677Z,12.60
2022-12-22T20:35:48.064Z,12.70
2022-12-22T20:38:38.252Z,12.70
2022-12-22T20:41:08.585Z,12.70
2022-12-22T20:43:37.375Z,12.80
2022-12-22T20:46:12.337Z,12.80
2022-12-22T20:48:56.178Z,12.80
2022-12-22T20:51:25.776Z,12.80
2022-12-22T20:53:53.589Z,12.70
2022-12-22T20:56:33.840Z,12.80
2022-12-22T20:59:11.304Z,12.80
2022-12-22T21:01:38.605Z,12.90
2022-12-22T21:04:05.834Z,12.80
2022-12-22T21:06:39.845Z,12.90
2022-12-22T21:09:06.933Z,13.00
2022-12-22T21:11:34.977Z,12.90
2022-12-22T21:14:02.518Z,12.80
2022-12-22T21:16:31.763Z,12.70
2022-12-22T21:18:58.965Z,12.60
2022-12-22T21:21:26.275Z,12.50
2022-12-22T21:23:53.265Z,12.50
2022-12-22T21:26:34.485Z,12.60
2022-12-22T21:29:14.111Z,12.60
2022-12-22T21:31:40.970Z,12.70
2022-12-22T21:34:10.584Z,12.60
2022-12-22T21:36:38.262Z,12.50
2022-12-22T21:39:22.719Z,12.60
2022-12-22T21:42:03.906Z,12.60
2022-12-22T21:44:33.398Z,12.60
2022-12-22T21:47:01.188Z,12.70
2022-12-22T21:49:31.133Z,12.70
2022-12-22T21:51:58.231Z,12.80
2022-12-22T21:54:25.954Z,12.80
2022-12-22T21:56:54.263Z,12.70
2022-12-22T21:59:21.911Z,12.60
2022-12-22T22:01:49.364Z,12.60
2022-12-22T22:04:16.706Z,12.70
2022-12-22T22:06:43.666Z,12.80
2022-12-22T22:09:12.767Z,12.90
2022-12-22T22:11:59.027Z,12.90
2022-12-22T22:14:27.434Z,12.90
2022-12-22T22:16:54.409Z,12.90
2022-12-22T22:19:21.439Z,12.80
2022-12-22T22:21:48.808Z,12.80
2022-12-22T22:24:16.011Z,12.70
2022-12-22T22:26:46.033Z,12.70
2022-12-22T22:29:13.488Z,12.60
2022-12-22T22:31:41.433Z,12.70
2022-12-22T22:34:08.693Z,12.60
2022-12-22T22:36:35.816Z,12.60
2022-12-22T22:39:02.991Z,12.70
2022-12-22T22:41:34.103Z,12.70
2022-12-22T22:44:03.520Z,12.70
2022-12-22T22:46:30.488Z,12.80
2022-12-22T22:48:58.736Z,12.80
2022-12-22T22:51:25.904Z,12.70
2022-12-22T22:53:52.885Z,12.70
2022-12-22T22:56:19.850Z,12.80
2022-12-22T22:58:46.784Z,12.80
2022-12-22T23:01:13.896Z,12.80
2022-12-22T23:03:41.140Z,12.90
2022-12-22T23:06:10.950Z,12.90
2022-12-22T23:08:37.986Z,13.00
2022-12-22T23:11:06.291Z,13.00
2022-12-22T23:13:34.278Z,12.90
2022-12-22T23:16:03.219Z,12.90
2022-12-22T23:18:31.318Z,12.90
2022-12-22T23:21:03.052Z,12.90
2022-12-22T23:23:31.717Z,12.90
2022-12-22T23:25:59.093Z,12.90
2022-12-22T23:28:26.331Z,12.90
2022-12-22T23:30:54.289Z,12.80
2022-12-22T23:33:21.426Z,12.80
2022-12-22T23:35:50.271Z,12.90
2022-12-22T23:38:18.170Z,12.80
2022-12-22T23:40:54.441Z,12.70
2022-12-22T23:43:22.582Z,12.70
2022-12-22T23:45:49.767Z,12.80
2022-12-22T23:48:19.797Z,12.70
2022-12-22T23:50:47.962Z,12.70
2022-12-22T23:53:16.007Z,12.70
2022-12-22T23:55:49.997Z,12.70
2022-12-22T23:58:17.494Z,12.80
